Terminal Aerodrome Forecast
Issued by NWS

Home | Current Version | Previous Version | Text Only | Print | Product List | Glossary On
Versions: 1 2 3 4 5 6 7 8 9 10 11 12 13 14 15 16 17 18 19
000
FTUS43 KDLH 051600 AAB
TAFHYR
TAF AMD
KHYR 051624Z 0516/0612 12010G17KT P6SM SKC
     FM060000 12008KT P6SM SCT250
     FM060800 14008KT P6SM VCSH SCT040 BKN060=

USA.gov is the U.S. government's official web portal to all federal, state and local government web resources and services.